sensor_id;sensor_type;location;lat;lon;timestamp;pressure;altitude;pressure_sealevel;temperature;humidity
70488;BME280;57976;48.174;16.370;2022-07-03T00:00:33;99623.31;;;20.40;62.92
70488;BME280;57976;48.174;16.370;2022-07-03T00:02:38;99627.69;;;20.32;63.19
70488;BME280;57976;48.174;16.370;2022-07-03T00:04:43;99626.91;;;20.25;63.40
70488;BME280;57976;48.174;16.370;2022-07-03T00:06:49;99628.33;;;20.21;63.58
70488;BME280;57976;48.174;16.370;2022-07-03T00:08:55;99626.15;;;20.17;63.75
70488;BME280;57976;48.174;16.370;2022-07-03T00:11:00;99630.44;;;20.13;63.82
70488;BME280;57976;48.174;16.370;2022-07-03T00:13:08;99624.16;;;20.07;64.15
70488;BME280;57976;48.174;16.370;2022-07-03T00:15:16;99626.55;;;19.98;64.61
70488;BME280;57976;48.174;16.370;2022-07-03T00:17:21;99628.95;;;19.86;64.63
70488;BME280;57976;48.174;16.370;2022-07-03T00:19:26;99626.42;;;19.77;64.92
70488;BME280;57976;48.174;16.370;2022-07-03T00:21:38;99620.61;;;19.70;65.21
70488;BME280;57976;48.174;16.370;2022-07-03T00:23:50;99617.32;;;19.66;65.29
70488;BME280;57976;48.174;16.370;2022-07-03T00:25:56;99615.52;;;19.61;65.73
70488;BME280;57976;48.174;16.370;2022-07-03T00:28:03;99605.59;;;19.57;65.69
70488;BME280;57976;48.174;16.370;2022-07-03T00:30:11;99603.77;;;19.53;65.77
70488;BME280;57976;48.174;16.370;2022-07-03T00:32:23;99601.38;;;19.52;66.12
70488;BME280;57976;48.174;16.370;2022-07-03T00:34:28;99601.02;;;19.51;66.08
70488;BME280;57976;48.174;16.370;2022-07-03T00:36:36;99603.96;;;19.49;66.16
70488;BME280;57976;48.174;16.370;2022-07-03T00:38:44;99606.45;;;19.48;66.35
70488;BME280;57976;48.174;16.370;2022-07-03T00:40:49;99609.38;;;19.49;66.32
70488;BME280;57976;48.174;16.370;2022-07-03T00:42:57;99606.71;;;19.47;66.38
70488;BME280;57976;48.174;16.370;2022-07-03T00:45:08;99607.85;;;19.47;66.62
70488;BME280;57976;48.174;16.370;2022-07-03T00:47:15;99602.86;;;19.45;66.69
70488;BME280;57976;48.174;16.370;2022-07-03T00:49:21;99605.31;;;19.43;66.71
70488;BME280;57976;48.174;16.370;2022-07-03T00:51:28;99605.46;;;19.38;66.89
70488;BME280;57976;48.174;16.370;2022-07-03T00:53:38;99603.39;;;19.32;66.91
70488;BME280;57976;48.174;16.370;2022-07-03T00:55:48;99596.66;;;19.24;67.07
70488;BME280;57976;48.174;16.370;2022-07-03T00:57:54;99596.80;;;19.15;67.36
70488;BME280;57976;48.174;16.370;2022-07-03T01:00:01;99589.55;;;19.07;67.42
70488;BME280;57976;48.174;16.370;2022-07-03T01:02:08;99587.90;;;19.00;67.57
70488;BME280;57976;48.174;16.370;2022-07-03T01:04:25;99583.96;;;18.97;67.81
70488;BME280;57976;48.174;16.370;2022-07-03T01:06:43;99583.45;;;18.95;67.98
70488;BME280;57976;48.174;16.370;2022-07-03T01:09:00;99586.31;;;18.92;68.14
70488;BME280;57976;48.174;16.370;2022-07-03T01:11:14;99585.07;;;18.91;68.28
70488;BME280;57976;48.174;16.370;2022-07-03T01:13:27;99580.36;;;18.90;68.34
70488;BME280;57976;48.174;16.370;2022-07-03T01:15:45;99573.30;;;18.92;68.24
70488;BME280;57976;48.174;16.370;2022-07-03T01:18:07;99570.27;;;18.91;68.43
70488;BME280;57976;48.174;16.370;2022-07-03T01:20:17;99561.84;;;18.91;68.54
70488;BME280;57976;48.174;16.370;2022-07-03T01:22:32;99561.10;;;18.92;68.38
70488;BME280;57976;48.174;16.370;2022-07-03T01:25:00;99557.59;;;18.92;68.46
70488;BME280;57976;48.174;16.370;2022-07-03T01:27:13;99546.89;;;18.95;68.49
70488;BME280;57976;48.174;16.370;2022-07-03T01:29:26;99540.42;;;18.96;68.42
70488;BME280;57976;48.174;16.370;2022-07-03T01:31:38;99540.34;;;18.94;68.48
70488;BME280;57976;48.174;16.370;2022-07-03T01:33:43;99549.66;;;18.96;68.49
70488;BME280;57976;48.174;16.370;2022-07-03T01:36:04;99550.88;;;18.99;68.55
70488;BME280;57976;48.174;16.370;2022-07-03T01:38:12;99543.86;;;19.03;68.48
70488;BME280;57976;48.174;16.370;2022-07-03T01:40:18;99542.77;;;19.03;68.41
70488;BME280;57976;48.174;16.370;2022-07-03T01:42:26;99539.79;;;19.02;68.38
70488;BME280;57976;48.174;16.370;2022-07-03T01:44:33;99540.39;;;19.01;68.48
70488;BME280;57976;48.174;16.370;2022-07-03T01:46:41;99539.25;;;19.02;68.60
70488;BME280;57976;48.174;16.370;2022-07-03T01:48:48;99530.77;;;19.00;68.57
70488;BME280;57976;48.174;16.370;2022-07-03T01:50:54;99531.94;;;18.99;68.49
70488;BME280;57976;48.174;16.370;2022-07-03T01:53:02;99533.66;;;18.99;68.65
70488;BME280;57976;48.174;16.370;2022-07-03T01:55:09;99531.90;;;19.00;68.49
70488;BME280;57976;48.174;16.370;2022-07-03T01:57:14;99533.80;;;19.02;68.75
70488;BME280;57976;48.174;16.370;2022-07-03T01:59:19;99532.04;;;19.03;68.78
70488;BME280;57976;48.174;16.370;2022-07-03T02:01:29;99526.81;;;19.01;68.79
70488;BME280;57976;48.174;16.370;2022-07-03T02:03:41;99526.42;;;18.99;68.69
70488;BME280;57976;48.174;16.370;2022-07-03T02:05:58;99527.21;;;18.98;68.77
70488;BME280;57976;48.174;16.370;2022-07-03T02:08:35;99524.05;;;18.95;68.68
70488;BME280;57976;48.174;16.370;2022-07-03T02:10:45;99526.13;;;18.93;68.54
70488;BME280;57976;48.174;16.370;2022-07-03T02:12:57;99530.30;;;18.91;68.66
70488;BME280;57976;48.174;16.370;2022-07-03T02:15:08;99528.48;;;18.92;68.52
70488;BME280;57976;48.174;16.370;2022-07-03T02:17:18;99533.41;;;18.89;68.40
70488;BME280;57976;48.174;16.370;2022-07-03T02:19:30;99531.01;;;18.87;68.58
70488;BME280;57976;48.174;16.370;2022-07-03T02:21:46;99532.85;;;18.84;68.46
70488;BME280;57976;48.174;16.370;2022-07-03T02:23:59;99528.95;;;18.79;68.79
70488;BME280;57976;48.174;16.370;2022-07-03T02:26:11;99527.41;;;18.77;68.82
70488;BME280;57976;48.174;16.370;2022-07-03T02:28:32;99529.26;;;18.74;68.88
70488;BME280;57976;48.174;16.370;2022-07-03T02:30:43;99533.26;;;18.70;68.92
70488;BME280;57976;48.174;16.370;2022-07-03T02:32:52;99536.14;;;18.68;68.91
70488;BME280;57976;48.174;16.370;2022-07-03T02:35:02;99535.46;;;18.66;68.94
70488;BME280;57976;48.174;16.370;2022-07-03T02:37:11;99538.52;;;18.64;69.25
70488;BME280;57976;48.174;16.370;2022-07-03T02:39:29;99535.60;;;18.61;69.24
70488;BME280;57976;48.174;16.370;2022-07-03T02:41:45;99532.31;;;18.58;69.34
70488;BME280;57976;48.174;16.370;2022-07-03T02:43:58;99531.59;;;18.56;69.65
70488;BME280;57976;48.174;16.370;2022-07-03T02:46:07;99531.73;;;18.55;69.69
70488;BME280;57976;48.174;16.370;2022-07-03T02:48:18;99531.98;;;18.50;69.70
70488;BME280;57976;48.174;16.370;2022-07-03T02:50:26;99530.70;;;18.45;69.78
70488;BME280;57976;48.174;16.370;2022-07-03T02:52:44;99529.45;;;18.41;69.90
70488;BME280;57976;48.174;16.370;2022-07-03T02:54:53;99523.02;;;18.37;70.24
70488;BME280;57976;48.174;16.370;2022-07-03T02:57:07;99520.02;;;18.35;70.17
70488;BME280;57976;48.174;16.370;2022-07-03T02:59:19;99524.39;;;18.33;70.37
70488;BME280;57976;48.174;16.370;2022-07-03T03:01:45;99525.79;;;18.31;70.43
70488;BME280;57976;48.174;16.370;2022-07-03T03:04:09;99524.83;;;18.32;70.48
70488;BME280;57976;48.174;16.370;2022-07-03T03:06:15;99523.73;;;18.31;70.49
70488;BME280;57976;48.174;16.370;2022-07-03T03:08:37;99527.08;;;18.32;70.43
70488;BME280;57976;48.174;16.370;2022-07-03T03:10:52;99532.42;;;18.32;70.56
70488;BME280;57976;48.174;16.370;2022-07-03T03:13:04;99539.48;;;18.34;70.45
70488;BME280;57976;48.174;16.370;2022-07-03T03:15:12;99543.01;;;18.35;70.50
70488;BME280;57976;48.174;16.370;2022-07-03T03:17:24;99541.05;;;18.38;70.47
70488;BME280;57976;48.174;16.370;2022-07-03T03:19:39;99540.60;;;18.40;70.42
70488;BME280;57976;48.174;16.370;2022-07-03T03:21:55;99544.28;;;18.41;70.47
70488;BME280;57976;48.174;16.370;2022-07-03T03:24:03;99544.77;;;18.41;70.42
70488;BME280;57976;48.174;16.370;2022-07-03T03:26:12;99545.44;;;18.43;70.54
70488;BME280;57976;48.174;16.370;2022-07-03T03:28:17;99548.89;;;18.44;70.70
70488;BME280;57976;48.174;16.370;2022-07-03T03:30:22;99550.75;;;18.43;70.68
70488;BME280;57976;48.174;16.370;2022-07-03T03:32:30;99549.72;;;18.43;70.45
70488;BME280;57976;48.174;16.370;2022-07-03T03:34:36;99548.19;;;18.43;70.46
70488;BME280;57976;48.174;16.370;2022-07-03T03:36:41;99549.23;;;18.45;70.52
70488;BME280;57976;48.174;16.370;2022-07-03T03:38:47;99545.17;;;18.48;70.47
70488;BME280;57976;48.174;16.370;2022-07-03T03:40:52;99540.39;;;18.49;70.35
70488;BME280;57976;48.174;16.370;2022-07-03T03:42:59;99539.95;;;18.49;70.33
70488;BME280;57976;48.174;16.370;2022-07-03T03:45:06;99549.58;;;18.48;70.65
70488;BME280;57976;48.174;16.370;2022-07-03T03:47:11;99550.49;;;18.47;70.44
70488;BME280;57976;48.174;16.370;2022-07-03T03:49:18;99547.80;;;18.48;70.52
70488;BME280;57976;48.174;16.370;2022-07-03T03:51:23;99550.15;;;18.49;70.50
70488;BME280;57976;48.174;16.370;2022-07-03T03:53:29;99548.77;;;18.50;70.52
70488;BME280;57976;48.174;16.370;2022-07-03T03:55:34;99553.27;;;18.51;70.50
70488;BME280;57976;48.174;16.370;2022-07-03T03:57:39;99550.92;;;18.53;70.40
70488;BME280;57976;48.174;16.370;2022-07-03T03:59:44;99549.80;;;18.54;70.34
70488;BME280;57976;48.174;16.370;2022-07-03T04:01:49;99548.61;;;18.57;70.37
70488;BME280;57976;48.174;16.370;2022-07-03T04:03:55;99551.41;;;18.58;70.42
70488;BME280;57976;48.174;16.370;2022-07-03T04:06:00;99551.73;;;18.61;70.23
70488;BME280;57976;48.174;16.370;2022-07-03T04:08:06;99557.98;;;18.64;70.08
70488;BME280;57976;48.174;16.370;2022-07-03T04:10:10;99556.87;;;18.65;69.89
70488;BME280;57976;48.174;16.370;2022-07-03T04:12:15;99552.67;;;18.66;69.77
70488;BME280;57976;48.174;16.370;2022-07-03T04:14:23;99550.61;;;18.69;69.68
70488;BME280;57976;48.174;16.370;2022-07-03T04:16:29;99558.33;;;18.72;69.62
70488;BME280;57976;48.174;16.370;2022-07-03T04:18:35;99559.57;;;18.75;69.25
70488;BME280;57976;48.174;16.370;2022-07-03T04:20:41;99558.83;;;18.76;69.12
70488;BME280;57976;48.174;16.370;2022-07-03T04:22:48;99560.63;;;18.78;69.04
70488;BME280;57976;48.174;16.370;2022-07-03T04:24:53;99562.80;;;18.81;68.87
70488;BME280;57976;48.174;16.370;2022-07-03T04:26:59;99565.15;;;18.84;68.75
70488;BME280;57976;48.174;16.370;2022-07-03T04:29:07;99568.52;;;18.85;68.57
70488;BME280;57976;48.174;16.370;2022-07-03T04:31:12;99570.30;;;18.86;68.60
70488;BME280;57976;48.174;16.370;2022-07-03T04:33:17;99570.11;;;18.88;68.54
70488;BME280;57976;48.174;16.370;2022-07-03T04:35:26;99571.77;;;18.90;68.57
70488;BME280;57976;48.174;16.370;2022-07-03T04:37:31;99570.05;;;18.92;68.51
70488;BME280;57976;48.174;16.370;2022-07-03T04:39:38;99572.89;;;18.94;68.44
70488;BME280;57976;48.174;16.370;2022-07-03T04:41:43;99572.29;;;18.96;68.35
70488;BME280;57976;48.174;16.370;2022-07-03T04:43:48;99566.83;;;18.99;68.20
70488;BME280;57976;48.174;16.370;2022-07-03T04:45:53;99567.62;;;19.02;68.12
70488;BME280;57976;48.174;16.370;2022-07-03T04:47:58;99566.75;;;19.05;68.18
70488;BME280;57976;48.174;16.370;2022-07-03T04:50:04;99569.06;;;19.09;67.99
70488;BME280;57976;48.174;16.370;2022-07-03T04:52:09;99571.02;;;19.14;68.07
70488;BME280;57976;48.174;16.370;2022-07-03T04:54:14;99570.14;;;19.21;67.88
70488;BME280;57976;48.174;16.370;2022-07-03T04:56:20;99572.48;;;19.26;67.58
70488;BME280;57976;48.174;16.370;2022-07-03T04:58:28;99571.20;;;19.32;67.46
70488;BME280;57976;48.174;16.370;2022-07-03T05:00:33;99567.65;;;19.40;67.41
70488;BME280;57976;48.174;16.370;2022-07-03T05:02:37;99567.66;;;19.45;67.22
70488;BME280;57976;48.174;16.370;2022-07-03T05:04:46;99569.42;;;19.52;67.01
70488;BME280;57976;48.174;16.370;2022-07-03T05:06:51;99576.09;;;19.59;66.78
70488;BME280;57976;48.174;16.370;2022-07-03T05:08:59;99571.85;;;19.61;66.78
70488;BME280;57976;48.174;16.370;2022-07-03T05:11:04;99570.38;;;19.64;66.89
70488;BME280;57976;48.174;16.370;2022-07-03T05:13:09;99572.43;;;19.65;66.69
70488;BME280;57976;48.174;16.370;2022-07-03T05:15:14;99571.91;;;19.67;66.75
70488;BME280;57976;48.174;16.370;2022-07-03T05:17:19;99574.63;;;19.71;66.59
70488;BME280;57976;48.174;16.370;2022-07-03T05:19:24;99575.52;;;19.76;66.52
70488;BME280;57976;48.174;16.370;2022-07-03T05:21:29;99574.52;;;19.79;66.35
70488;BME280;57976;48.174;16.370;2022-07-03T05:23:36;99571.56;;;19.83;66.41
70488;BME280;57976;48.174;16.370;2022-07-03T05:25:41;99569.45;;;19.90;66.28
70488;BME280;57976;48.174;16.370;2022-07-03T05:27:46;99573.79;;;19.96;66.08
70488;BME280;57976;48.174;16.370;2022-07-03T05:29:51;99576.20;;;20.05;65.81
70488;BME280;57976;48.174;16.370;2022-07-03T05:31:57;99576.45;;;20.13;65.67
70488;BME280;57976;48.174;16.370;2022-07-03T05:34:02;99576.03;;;20.20;65.53
70488;BME280;57976;48.174;16.370;2022-07-03T05:36:07;99572.55;;;20.28;65.44
70488;BME280;57976;48.174;16.370;2022-07-03T05:38:14;99576.88;;;20.35;65.06
70488;BME280;57976;48.174;16.370;2022-07-03T05:40:19;99577.20;;;20.41;64.96
70488;BME280;57976;48.174;16.370;2022-07-03T05:42:23;99577.73;;;20.47;64.59
70488;BME280;57976;48.174;16.370;2022-07-03T05:44:29;99576.64;;;20.50;64.31
70488;BME280;57976;48.174;16.370;2022-07-03T05:46:34;99568.27;;;20.55;64.24
70488;BME280;57976;48.174;16.370;2022-07-03T05:48:40;99571.52;;;20.60;64.15
70488;BME280;57976;48.174;16.370;2022-07-03T05:50:45;99571.25;;;20.63;63.97
70488;BME280;57976;48.174;16.370;2022-07-03T05:52:50;99575.45;;;20.65;63.92
70488;BME280;57976;48.174;16.370;2022-07-03T05:54:56;99575.80;;;20.70;63.77
70488;BME280;57976;48.174;16.370;2022-07-03T05:57:01;99578.64;;;20.74;63.46
70488;BME280;57976;48.174;16.370;2022-07-03T05:59:10;99582.04;;;20.79;63.45
70488;BME280;57976;48.174;16.370;2022-07-03T06:01:16;99581.61;;;20.88;63.39
70488;BME280;57976;48.174;16.370;2022-07-03T06:03:22;99582.39;;;20.91;63.13
70488;BME280;57976;48.174;16.370;2022-07-03T06:05:34;99586.69;;;20.95;63.10
70488;BME280;57976;48.174;16.370;2022-07-03T06:07:40;99586.20;;;20.94;63.03
70488;BME280;57976;48.174;16.370;2022-07-03T06:09:44;99591.32;;;20.99;62.95
70488;BME280;57976;48.174;16.370;2022-07-03T06:11:51;99593.55;;;21.04;62.90
70488;BME280;57976;48.174;16.370;2022-07-03T06:13:57;99591.85;;;21.10;62.83
70488;BME280;57976;48.174;16.370;2022-07-03T06:16:02;99595.52;;;21.17;62.43
70488;BME280;57976;48.174;16.370;2022-07-03T06:18:07;99596.97;;;21.23;62.28
70488;BME280;57976;48.174;16.370;2022-07-03T06:20:13;99593.17;;;21.26;62.21
70488;BME280;57976;48.174;16.370;2022-07-03T06:22:18;99589.95;;;21.32;62.20
70488;BME280;57976;48.174;16.370;2022-07-03T06:24:29;99591.73;;;21.42;61.86
70488;BME280;57976;48.174;16.370;2022-07-03T06:26:34;99590.28;;;21.45;61.63
70488;BME280;57976;48.174;16.370;2022-07-03T06:28:39;99592.90;;;21.46;61.23
70488;BME280;57976;48.174;16.370;2022-07-03T06:30:44;99591.44;;;21.46;61.13
70488;BME280;57976;48.174;16.370;2022-07-03T06:32:49;99589.39;;;21.49;61.16
70488;BME280;57976;48.174;16.370;2022-07-03T06:34:57;99592.02;;;21.57;61.14
70488;BME280;57976;48.174;16.370;2022-07-03T06:37:02;99589.05;;;21.62;60.99
70488;BME280;57976;48.174;16.370;2022-07-03T06:39:07;99590.27;;;21.67;60.88
70488;BME280;57976;48.174;16.370;2022-07-03T06:41:12;99588.98;;;21.72;60.65
70488;BME280;57976;48.174;16.370;2022-07-03T06:43:18;99588.55;;;21.74;60.56
70488;BME280;57976;48.174;16.370;2022-07-03T06:45:26;99586.65;;;21.75;60.61
70488;BME280;57976;48.174;16.370;2022-07-03T06:47:31;99582.40;;;21.81;60.48
70488;BME280;57976;48.174;16.370;2022-07-03T06:49:40;99578.64;;;21.87;60.31
70488;BME280;57976;48.174;16.370;2022-07-03T06:51:46;99573.66;;;21.92;60.14
70488;BME280;57976;48.174;16.370;2022-07-03T06:53:51;99575.61;;;21.97;59.95
70488;BME280;57976;48.174;16.370;2022-07-03T06:55:59;99571.77;;;22.00;59.81
70488;BME280;57976;48.174;16.370;2022-07-03T06:58:05;99571.70;;;22.01;59.79
70488;BME280;57976;48.174;16.370;2022-07-03T07:00:12;99567.65;;;22.08;60.07
70488;BME280;57976;48.174;16.370;2022-07-03T07:02:17;99570.54;;;22.19;59.69
70488;BME280;57976;48.174;16.370;2022-07-03T07:04:26;99570.16;;;22.30;59.16
70488;BME280;57976;48.174;16.370;2022-07-03T07:06:36;99567.51;;;22.37;58.83
70488;BME280;57976;48.174;16.370;2022-07-03T07:08:41;99571.52;;;22.45;58.62
70488;BME280;57976;48.174;16.370;2022-07-03T07:10:48;99574.88;;;22.53;58.29
70488;BME280;57976;48.174;16.370;2022-07-03T07:12:54;99568.97;;;22.54;58.36
70488;BME280;57976;48.174;16.370;2022-07-03T07:14:59;99568.77;;;22.62;58.40
70488;BME280;57976;48.174;16.370;2022-07-03T07:17:05;99569.64;;;22.70;58.07
70488;BME280;57976;48.174;16.370;2022-07-03T07:19:10;99571.48;;;22.72;58.00
70488;BME280;57976;48.174;16.370;2022-07-03T07:21:17;99570.93;;;22.78;57.77
70488;BME280;57976;48.174;16.370;2022-07-03T07:23:23;99572.13;;;22.83;57.54
70488;BME280;57976;48.174;16.370;2022-07-03T07:25:31;99572.48;;;22.89;57.30
70488;BME280;57976;48.174;16.370;2022-07-03T07:27:36;99572.64;;;22.96;57.22
70488;BME280;57976;48.174;16.370;2022-07-03T07:29:44;99573.05;;;23.03;57.24
70488;BME280;57976;48.174;16.370;2022-07-03T07:31:50;99567.33;;;23.11;57.01
70488;BME280;57976;48.174;16.370;2022-07-03T07:33:56;99566.34;;;23.16;56.63
70488;BME280;57976;48.174;16.370;2022-07-03T07:36:00;99563.43;;;23.18;56.42
70488;BME280;57976;48.174;16.370;2022-07-03T07:38:09;99559.74;;;23.21;56.31
70488;BME280;57976;48.174;16.370;2022-07-03T07:40:15;99557.86;;;23.27;56.57
70488;BME280;57976;48.174;16.370;2022-07-03T07:42:20;99557.80;;;23.37;55.82
70488;BME280;57976;48.174;16.370;2022-07-03T07:44:26;99557.66;;;23.44;56.04
70488;BME280;57976;48.174;16.370;2022-07-03T07:46:32;99556.47;;;23.55;55.96
70488;BME280;57976;48.174;16.370;2022-07-03T07:48:44;99560.67;;;23.65;55.31
70488;BME280;57976;48.174;16.370;2022-07-03T07:50:54;99564.73;;;23.75;54.84
70488;BME280;57976;48.174;16.370;2022-07-03T07:53:00;99566.55;;;23.84;54.82
70488;BME280;57976;48.174;16.370;2022-07-03T07:55:09;99570.34;;;23.93;54.08
70488;BME280;57976;48.174;16.370;2022-07-03T07:57:14;99569.16;;;24.00;54.00
70488;BME280;57976;48.174;16.370;2022-07-03T07:59:19;99564.93;;;24.07;54.11
70488;BME280;57976;48.174;16.370;2022-07-03T08:01:24;99564.41;;;24.14;53.75
70488;BME280;57976;48.174;16.370;2022-07-03T08:03:30;99566.48;;;24.21;53.50
70488;BME280;57976;48.174;16.370;2022-07-03T08:05:35;99570.48;;;24.32;53.75
70488;BME280;57976;48.174;16.370;2022-07-03T08:07:41;99565.40;;;24.46;53.32
70488;BME280;57976;48.174;16.370;2022-07-03T08:09:46;99565.11;;;24.62;53.04
70488;BME280;57976;48.174;16.370;2022-07-03T08:11:52;99570.86;;;24.78;52.88
70488;BME280;57976;48.174;16.370;2022-07-03T08:13:58;99567.45;;;24.92;52.80
70488;BME280;57976;48.174;16.370;2022-07-03T08:16:04;99570.44;;;25.08;52.78
70488;BME280;57976;48.174;16.370;2022-07-03T08:18:10;99567.86;;;25.19;52.37
70488;BME280;57976;48.174;16.370;2022-07-03T08:20:18;99565.33;;;25.26;52.29
70488;BME280;57976;48.174;16.370;2022-07-03T08:22:26;99564.48;;;25.32;51.94
70488;BME280;57976;48.174;16.370;2022-07-03T08:24:31;99564.80;;;25.38;52.02
70488;BME280;57976;48.174;16.370;2022-07-03T08:26:36;99558.83;;;25.42;51.33
70488;BME280;57976;48.174;16.370;2022-07-03T08:28:40;99562.94;;;25.39;51.97
70488;BME280;57976;48.174;16.370;2022-07-03T08:30:46;99559.30;;;25.42;51.88
70488;BME280;57976;48.174;16.370;2022-07-03T08:32:52;99560.05;;;25.49;51.87
70488;BME280;57976;48.174;16.370;2022-07-03T08:34:59;99564.11;;;25.57;51.28
70488;BME280;57976;48.174;16.370;2022-07-03T08:37:04;99566.15;;;25.54;50.91
70488;BME280;57976;48.174;16.370;2022-07-03T08:39:15;99560.89;;;25.48;51.16
70488;BME280;57976;48.174;16.370;2022-07-03T08:41:24;99562.41;;;25.44;51.35
70488;BME280;57976;48.174;16.370;2022-07-03T08:43:31;99561.51;;;25.47;51.48
70488;BME280;57976;48.174;16.370;2022-07-03T08:45:38;99558.66;;;25.51;51.33
70488;BME280;57976;48.174;16.370;2022-07-03T08:47:45;99561.34;;;25.54;51.22
70488;BME280;57976;48.174;16.370;2022-07-03T08:49:51;99559.67;;;25.53;51.21
70488;BME280;57976;48.174;16.370;2022-07-03T08:52:01;99561.34;;;25.50;50.68
70488;BME280;57976;48.174;16.370;2022-07-03T08:54:06;99561.17;;;25.47;51.08
70488;BME280;57976;48.174;16.370;2022-07-03T08:56:13;99557.30;;;25.48;50.87
70488;BME280;57976;48.174;16.370;2022-07-03T08:58:19;99557.66;;;25.48;50.71
70488;BME280;57976;48.174;16.370;2022-07-03T09:00:32;99558.67;;;25.51;50.98
70488;BME280;57976;48.174;16.370;2022-07-03T09:02:39;99561.35;;;25.59;50.47
70488;BME280;57976;48.174;16.370;2022-07-03T09:04:49;99558.48;;;25.62;50.30
70488;BME280;57976;48.174;16.370;2022-07-03T09:06:54;99556.52;;;25.64;50.84
70488;BME280;57976;48.174;16.370;2022-07-03T09:09:02;99559.05;;;25.71;50.47
70488;BME280;57976;48.174;16.370;2022-07-03T09:11:08;99562.69;;;25.73;49.79
70488;BME280;57976;48.174;16.370;2022-07-03T09:13:13;99561.73;;;25.71;50.02
70488;BME280;57976;48.174;16.370;2022-07-03T09:15:18;99563.77;;;25.77;49.74
70488;BME280;57976;48.174;16.370;2022-07-03T09:17:23;99556.67;;;25.81;49.45
70488;BME280;57976;48.174;16.370;2022-07-03T09:19:45;99560.46;;;25.83;49.14
70488;BME280;57976;48.174;16.370;2022-07-03T09:21:50;99556.86;;;25.83;49.25
70488;BME280;57976;48.174;16.370;2022-07-03T09:24:05;99553.15;;;25.80;49.31
70488;BME280;57976;48.174;16.370;2022-07-03T09:26:15;99550.07;;;25.77;49.49
70488;BME280;57976;48.174;16.370;2022-07-03T09:30:57;99551.73;;;25.87;49.47
70488;BME280;57976;48.174;16.370;2022-07-03T09:33:03;99548.31;;;25.89;49.28
70488;BME280;57976;48.174;16.370;2022-07-03T09:35:22;99550.55;;;25.89;49.44
70488;BME280;57976;48.174;16.370;2022-07-03T09:37:30;99546.22;;;25.90;49.56
70488;BME280;57976;48.174;16.370;2022-07-03T09:39:36;99541.16;;;25.96;49.86
70488;BME280;57976;48.174;16.370;2022-07-03T09:41:54;99550.77;;;26.07;49.36
70488;BME280;57976;48.174;16.370;2022-07-03T09:44:02;99550.55;;;26.08;49.43
70488;BME280;57976;48.174;16.370;2022-07-03T09:46:07;99547.61;;;26.02;49.35
70488;BME280;57976;48.174;16.370;2022-07-03T09:48:25;99552.71;;;25.97;49.78
70488;BME280;57976;48.174;16.370;2022-07-03T09:50:41;99551.11;;;25.92;49.95
70488;BME280;57976;48.174;16.370;2022-07-03T09:52:48;99550.66;;;25.92;49.69
70488;BME280;57976;48.174;16.370;2022-07-03T09:54:53;99547.36;;;25.94;49.90
70488;BME280;57976;48.174;16.370;2022-07-03T09:56:59;99545.39;;;25.98;50.00
70488;BME280;57976;48.174;16.370;2022-07-03T09:59:06;99535.52;;;26.01;50.20
70488;BME280;57976;48.174;16.370;2022-07-03T10:01:18;99541.45;;;26.06;50.18
70488;BME280;57976;48.174;16.370;2022-07-03T10:03:23;99537.24;;;26.02;50.08
70488;BME280;57976;48.174;16.370;2022-07-03T10:05:36;99534.86;;;26.01;50.24
70488;BME280;57976;48.174;16.370;2022-07-03T10:07:53;99534.31;;;26.05;50.23
70488;BME280;57976;48.174;16.370;2022-07-03T10:09:58;99535.14;;;26.08;50.33
70488;BME280;57976;48.174;16.370;2022-07-03T10:12:05;99525.55;;;26.12;50.53
70488;BME280;57976;48.174;16.370;2022-07-03T10:14:14;99527.89;;;26.16;50.37
70488;BME280;57976;48.174;16.370;2022-07-03T10:16:23;99532.13;;;26.20;50.48
70488;BME280;57976;48.174;16.370;2022-07-03T10:18:31;99528.54;;;26.22;50.50
70488;BME280;57976;48.174;16.370;2022-07-03T10:20:46;99523.08;;;26.26;50.66
70488;BME280;57976;48.174;16.370;2022-07-03T10:22:52;99520.32;;;26.30;50.41
70488;BME280;57976;48.174;16.370;2022-07-03T10:24:57;99522.79;;;26.33;50.62
70488;BME280;57976;48.174;16.370;2022-07-03T10:27:05;99513.13;;;26.39;50.54
70488;BME280;57976;48.174;16.370;2022-07-03T10:29:11;99521.11;;;26.45;50.32
70488;BME280;57976;48.174;16.370;2022-07-03T10:31:16;99520.55;;;26.55;49.94
70488;BME280;57976;48.174;16.370;2022-07-03T10:33:22;99520.70;;;26.62;49.97
70488;BME280;57976;48.174;16.370;2022-07-03T10:35:34;99514.03;;;26.68;49.96
70488;BME280;57976;48.174;16.370;2022-07-03T10:37:52;99517.55;;;26.73;49.45
70488;BME280;57976;48.174;16.370;2022-07-03T10:40:07;99508.25;;;26.74;49.64
70488;BME280;57976;48.174;16.370;2022-07-03T10:42:19;99498.65;;;26.79;49.78
70488;BME280;57976;48.174;16.370;2022-07-03T10:44:26;99500.23;;;26.88;49.97
70488;BME280;57976;48.174;16.370;2022-07-03T10:46:32;99502.52;;;26.99;49.85
70488;BME280;57976;48.174;16.370;2022-07-03T15:33:41;99260.44;;;30.79;38.25
70488;BME280;57976;48.174;16.370;2022-07-03T15:35:49;99262.67;;;30.80;38.15
70488;BME280;57976;48.174;16.370;2022-07-03T15:38:10;99264.39;;;30.84;37.37
70488;BME280;57976;48.174;16.370;2022-07-03T15:40:18;99263.57;;;30.85;37.39
70488;BME280;57976;48.174;16.370;2022-07-03T15:42:41;99264.09;;;30.85;37.27
70488;BME280;57976;48.174;16.370;2022-07-03T15:44:55;99256.73;;;30.81;37.80
70488;BME280;57976;48.174;16.370;2022-07-03T15:47:11;99262.33;;;30.83;37.08
70488;BME280;57976;48.174;16.370;2022-07-03T15:49:35;99250.58;;;30.84;36.79
70488;BME280;57976;48.174;16.370;2022-07-03T15:51:54;99252.09;;;30.91;36.83
70488;BME280;57976;48.174;16.370;2022-07-03T15:53:59;99249.80;;;30.97;36.73
70488;BME280;57976;48.174;16.370;2022-07-03T15:56:06;99257.79;;;31.00;36.16
70488;BME280;57976;48.174;16.370;2022-07-03T15:58:12;99255.65;;;30.99;35.67